| # | Athlete | Time | Avg(mph) | Avg(W) | NP(W) | Avg HR | IF | Date |
|---|---|---|---|---|---|---|---|---|
| 1 | DV David Viens | 02:54:26.4 | 15.82 mph | 209W | 235W | 134 bpm | - | Sat, Mar 7, 2026 @ 1:06 PM (UTC) |
| 2 | AS Andrew Schaaf | 02:54:41.1 | 15.80 mph | 215W | 245W | 142 bpm | 0.94 | Sat, Mar 7, 2026 @ 1:06 PM (UTC) |
| 3 | DJ Dave Johnson | 03:56:06.8 | 11.69 mph | 210W | 230W | 140 bpm | - | Sat, Mar 7, 2026 @ 1:06 PM (UTC) |
| 4 | JS Jim Strang | 03:56:15.7 | 11.68 mph | 201W | 233W | 146 bpm | - | Sat, Mar 7, 2026 @ 1:06 PM (UTC) |
| # | Athlete | Time | Avg(mph) | Avg(W) | NP(W) | Avg HR | IF | Date |
|---|---|---|---|---|---|---|---|---|
| 1 | AS Andrew Schaaf | 00:01:41.4 | 12.29 mph | 367W | 399W | 151 bpm | 1.53 | Sat, Mar 7, 2026 @ 3:13 PM (UTC) |
| 2 | DV David Viens | 00:01:49.3 | 11.40 mph | 328W | 350W | 150 bpm | - | Sat, Mar 7, 2026 @ 3:13 PM (UTC) |
| 3 | DJ Dave Johnson | 00:02:23.4 | 8.69 mph | 260W | 264W | 148 bpm | - | Sat, Mar 7, 2026 @ 3:13 PM (UTC) |
| 4 | JS Jim Strang | 00:02:23.7 | 8.67 mph | 278W | 292W | 156 bpm | - | Sat, Mar 7, 2026 @ 3:13 PM (UTC) |
| # | Athlete | Time | Avg(mph) | Avg(W) | NP(W) | Avg HR | IF | Date |
|---|---|---|---|---|---|---|---|---|
| 1 | DV David Viens | 00:01:42.6 | 18.42 mph | 216W | 232W | 139 bpm | - | Sat, Mar 7, 2026 @ 3:59 PM (UTC) |
| 2 | AS Andrew Schaaf | 00:01:44.9 | 18.01 mph | 248W | 272W | 159 bpm | 1.05 | Sat, Mar 7, 2026 @ 3:59 PM (UTC) |
| 3 | JS Jim Strang | 00:01:54.2 | 16.56 mph | 214W | 232W | 152 bpm | - | Sat, Mar 7, 2026 @ 5:00 PM (UTC) |
| 4 | DJ Dave Johnson | 00:01:54.2 | 16.55 mph | 203W | 203W | 149 bpm | - | Sat, Mar 7, 2026 @ 5:00 PM (UTC) |
| # | Athlete | Time | Avg(mph) | Avg(W) | NP(W) | Avg HR | IF | Date |
|---|---|---|---|---|---|---|---|---|
| 1 | AS Andrew Schaaf | 00:01:09.2 | 30.18 mph | 213W | 248W | 138 bpm | 0.95 | Sat, Mar 7, 2026 @ 3:16 PM (UTC) |
| 2 | DV David Viens | 00:01:10.9 | 29.43 mph | 206W | 221W | 130 bpm | - | Sat, Mar 7, 2026 @ 3:16 PM (UTC) |
| 3 | JS Jim Strang | 00:01:12.2 | 28.93 mph | 183W | 199W | 146 bpm | - | Sat, Mar 7, 2026 @ 3:16 PM (UTC) |
| 4 | DJ Dave Johnson | 00:01:12.4 | 28.85 mph | 213W | 207W | 131 bpm | - | Sat, Mar 7, 2026 @ 3:16 PM (UTC) |
| # | Athlete | Time | Avg(mph) | Avg(W) | NP(W) | Avg HR | IF | Date |
|---|---|---|---|---|---|---|---|---|
| 1 | AS Andrew Schaaf | 00:05:17.2 | 18.39 mph | 208W | 214W | 152 bpm | 0.82 | Sat, Mar 7, 2026 @ 2:36 PM (UTC) |
| 2 | DJ Dave Johnson | 00:05:17.9 | 18.35 mph | 226W | 234W | 155 bpm | - | Sat, Mar 7, 2026 @ 2:36 PM (UTC) |
| 3 | DV David Viens | 00:05:18.4 | 18.33 mph | 208W | 213W | 139 bpm | - | Sat, Mar 7, 2026 @ 2:36 PM (UTC) |
| 4 | JS Jim Strang | 00:05:18.5 | 18.32 mph | 219W | 229W | 159 bpm | - | Sat, Mar 7, 2026 @ 2:36 PM (UTC) |